Airfield :
LOGIN :

Register | Disclaimer

   EN    FR    IT 

 










Legend :    VFR   Marginal VFR   IFR   Intensive IFR   Very Intensive IFR
Visi :
Ceiling :
>= 8 km
>= 3000ft
5 to 8 km
1000 to 3000 ft
1500m to 5 km
500 to 1000 ft
800 to 1500m
200 to 500 ft
< 800m
< 200 ft
Symbols :   Thunderstorms  Fog  Heavy snow  Heavy precipitations  Wind > 20 kt
SIGMETs :     Misc.  Thunderstorms  Icing  Turbulence  Mountain Waves  Volcanic Ashes







- Airport Elevation : 266 ft
- IATA code : NCL
- Download approach charts


EGNT - Newcastle

CURRENT METAR :
  • 250120Z 28005KT CAVOK 05/05 Q1017

EXPIRED METARs :
  • 250050Z 29005KT CAVOK 06/06 Q1017
  • 250020Z VRB01KT 9999 FEW048 05/05 Q1017
  • 242350Z 30003KT CAVOK 06/06 Q1017
  • 242320Z VRB01KT CAVOK 06/06 Q1017
  • 242250Z 28005KT CAVOK 06/06 Q1017

TAF TAF EGNT
Valid from the 25 at 00:00 until the 26 at 00:00 UTC


242258Z 2500/2524 27006KT 9999 SCT040
TEMPO 2502/2506 6000
TEMPO 2515/2518 6000 RA
BECMG 2518/2521 8000 -RA FEW008 BKN010
TEMPO 2518/2524 4000 RADZ BKN008
ATIS : +44 191 214 3400
No reported NOTAMs for that airfield.



MET'MAP, your aeronautical weather chart ! - Copyright ORBIFLY December 2007 - Disclaimer

ORBIFLY MET'MAP TEAM :

Programming & Development : Alexandra Zaïnal
Concept & Development : Baudouin d'Aumeries
Co-Development & Prog : Marc-Olivier Méhu
Technical & hardware support : Manuel Goepfert

Contact : metmap@orbifly.com




SOURCES & CREDITS :

   NOAA